Time;durP1;ratioP1;P1;durP2;ratioP2;P2;SDS_P1;SDS_P2;PMS_P1;PMS_P2;Temp;Humidity;BMP_temperature;BMP_pressure;BME280_temperature;BME280_humidity;BME280_pressure;Samples;Min_cycle;Max_cycle;Signal;HPM_P1;HPM_P2
2021/10/25 11:19:35;;;;;;;3.03;2.90;;;12.00;99.90;;;;;;5091030;28;20537;-78
2021/10/25 11:22:03;;;;;;;8.20;3.30;;;12.10;99.90;;;;;;5090913;28;20194;-78
2021/10/25 11:24:28;;;;;;;3.70;3.40;;;12.20;99.90;;;;;;5090837;28;20164;-79
2021/10/25 11:26:58;;;;;;;2.65;2.47;;;12.20;99.90;;;;;;5090849;28;20644;-79
2021/10/25 11:29:27;;;;;;;5.28;3.03;;;12.30;99.90;;;;;;5090681;28;20167;-79
2021/10/25 11:31:55;;;;;;;4.07;2.80;;;12.30;99.90;;;;;;5090745;28;20167;-79
2021/10/25 11:34:34;;;;;;;3.58;3.03;;;12.40;99.90;;;;;;5090711;28;20225;-79
2021/10/25 11:37:10;;;;;;;3.10;2.90;;;12.40;99.90;;;;;;5090681;28;20182;-79
2021/10/25 11:42:24;;;;;;;4.55;2.42;;;12.60;99.90;;;;;;5090810;28;20174;-79
2021/10/25 11:44:52;;;;;;;5.78;2.90;;;12.60;99.90;;;;;;5090505;28;20164;-79
2021/10/25 11:47:27;;;;;;;3.35;3.05;;;12.60;99.90;;;;;;5090448;28;20195;-79
2021/10/25 11:49:57;;;;;;;2.83;2.70;;;12.70;99.90;;;;;;5090375;28;20195;-79
2021/10/25 11:52:23;;;;;;;4.78;3.53;;;12.80;99.90;;;;;;5090337;28;20615;-79
2021/10/25 11:54:51;;;;;;;4.47;2.92;;;12.90;99.90;;;;;;5090326;28;20254;-79
2021/10/25 11:57:18;;;;;;;5.40;3.00;;;13.00;99.90;;;;;;5090193;28;20167;-79
2021/10/25 11:59:53;;;;;;;3.95;3.65;;;13.00;99.90;;;;;;5090134;28;20215;-79
2021/10/25 12:02:22;;;;;;;3.10;2.90;;;13.10;99.90;;;;;;5090204;28;20199;-79
2021/10/25 12:04:48;;;;;;;3.28;3.03;;;13.10;99.90;;;;;;5090060;28;20527;-79
2021/10/25 12:07:14;;;;;;;3.08;2.88;;;13.10;99.90;;;;;;5090076;28;20183;-79
2021/10/25 12:09:41;;;;;;;4.60;3.00;;;13.20;99.90;;;;;;5090059;28;20189;-79
2021/10/25 12:12:16;;;;;;;3.33;3.03;;;13.30;99.90;;;;;;5089955;28;20203;-79
2021/10/25 12:14:45;;;;;;;3.35;2.65;;;13.40;99.90;;;;;;5088738;28;20214;-79
2021/10/25 12:17:21;;;;;;;3.95;2.65;;;13.40;99.90;;;;;;5089613;28;20164;-79
2021/10/25 12:19:47;;;;;;;4.50;2.45;;;13.60;99.90;;;;;;5088633;28;20168;-79
2021/10/25 12:22:19;;;;;;;4.15;2.45;;;13.60;99.90;;;;;;5089799;28;20175;-79
2021/10/25 12:24:48;;;;;;;3.13;2.45;;;13.60;99.90;;;;;;5089763;28;20577;-79
2021/10/25 12:27:16;;;;;;;2.67;2.47;;;13.60;99.90;;;;;;5089647;28;20171;-79
2021/10/25 12:29:43;;;;;;;2.80;2.60;;;13.60;99.90;;;;;;5083103;28;20164;-79
2021/10/25 12:32:11;;;;;;;3.13;2.80;;;13.60;99.90;;;;;;5074805;28;20175;-79
2021/10/25 12:35:06;;;;;;;4.40;2.88;;;13.70;99.90;;;;;;5076079;28;20251;-79
2021/10/25 12:37:34;;;;;;;13.90;3.97;;;13.70;99.90;;;;;;5075355;28;20672;-79
2021/10/25 12:40:01;;;;;;;2.97;2.50;;;13.70;99.90;;;;;;5075946;28;20644;-79
2021/10/25 12:42:44;;;;;;;2.88;2.67;;;13.70;99.90;;;;;;5075876;28;20165;-79
2021/10/25 12:45:15;;;;;;;6.00;2.80;;;13.80;99.90;;;;;;5075903;28;20164;-79
2021/10/25 12:47:41;;;;;;;3.13;2.80;;;13.80;99.90;;;;;;5075831;28;20164;-79
2021/10/25 12:50:11;;;;;;;4.32;2.80;;;13.80;99.90;;;;;;5075754;28;20164;-79
2021/10/25 12:52:37;;;;;;;3.15;2.95;;;13.80;99.90;;;;;;5075676;28;20664;-80
2021/10/25 12:55:03;;;;;;;3.50;2.95;;;13.90;99.90;;;;;;5075758;28;20172;-79
2021/10/25 12:57:32;;;;;;;3.83;2.90;;;13.80;99.90;;;;;;5075632;28;20226;-79
2021/10/25 13:00:07;;;;;;;7.97;2.60;;;13.90;99.90;;;;;;5075539;28;20267;-79
2021/10/25 13:02:48;;;;;;;4.38;2.97;;;13.80;99.90;;;;;;5075702;28;20163;-79
2021/10/25 13:05:16;;;;;;;3.13;2.83;;;13.90;99.90;;;;;;5074177;28;20175;-79
2021/10/25 13:07:56;;;;;;;3.78;3.42;;;13.90;99.90;;;;;;5075488;28;20164;-79
2021/10/25 13:10:24;;;;;;;7.07;2.72;;;13.90;99.90;;;;;;5075567;28;20164;-79
2021/10/25 13:12:51;;;;;;;2.90;2.70;;;14.00;99.90;;;;;;5074124;28;20180;-79
2021/10/25 13:15:17;;;;;;;8.45;4.65;;;14.10;99.90;;;;;;5075300;28;20680;-79
2021/10/25 13:17:43;;;;;;;3.97;2.97;;;14.10;99.90;;;;;;5074953;28;20224;-79
2021/10/25 13:20:11;;;;;;;5.03;2.78;;;14.10;99.90;;;;;;5075218;28;20617;-79
2021/10/25 13:22:37;;;;;;;3.00;2.80;;;14.20;99.90;;;;;;5075210;28;20267;-79
2021/10/25 13:25:04;;;;;;;4.25;3.95;;;14.30;99.90;;;;;;5075156;28;20602;-79
2021/10/25 13:27:30;;;;;;;3.00;2.83;;;14.20;99.90;;;;;;5075355;28;20169;-80
2021/10/25 13:29:56;;;;;;;9.98;3.33;;;14.20;99.90;;;;;;5074963;28;20221;-79
2021/10/25 13:32:23;;;;;;;2.92;2.42;;;14.20;99.90;;;;;;5073715;28;20187;-79
2021/10/25 13:34:49;;;;;;;3.38;3.17;;;14.20;99.90;;;;;;5075115;28;20200;-79
2021/10/25 13:37:14;;;;;;;5.70;2.60;;;14.20;99.90;;;;;;5074825;28;20225;-80
2021/10/25 13:39:40;;;;;;;5.15;3.08;;;14.20;99.90;;;;;;5074820;28;20164;-79
2021/10/25 13:42:06;;;;;;;2.90;2.38;;;14.20;99.90;;;;;;5073779;28;20676;-79
2021/10/25 13:44:32;;;;;;;3.92;2.60;;;14.10;99.90;;;;;;5074697;28;20176;-87
2021/10/25 13:46:57;;;;;;;3.42;3.13;;;14.10;99.90;;;;;;5074682;28;20168;-83
2021/10/25 13:49:24;;;;;;;4.30;2.67;;;14.00;99.90;;;;;;5074637;28;20256;-84
2021/10/25 13:51:50;;;;;;;3.22;2.85;;;14.00;99.90;;;;;;5074527;28;20165;-83
2021/10/25 13:54:16;;;;;;;3.53;2.83;;;13.90;99.90;;;;;;5074568;28;20214;-83
2021/10/25 13:56:42;;;;;;;3.88;3.08;;;14.00;99.90;;;;;;5074688;28;20172;-84
2021/10/25 13:59:11;;;;;;;2.60;2.40;;;14.00;99.90;;;;;;5074794;28;20542;-84
2021/10/25 14:01:37;;;;;;;4.38;2.85;;;14.00;99.90;;;;;;5074800;28;20172;-84
2021/10/25 14:04:03;;;;;;;5.57;2.83;;;14.00;99.90;;;;;;5074868;28;20541;-84
2021/10/25 14:06:31;;;;;;;2.90;2.60;;;13.90;99.90;;;;;;5074619;28;20226;-83
2021/10/25 14:08:58;;;;;;;6.85;3.10;;;13.90;99.90;;;;;;5074779;28;20153;-84
2021/10/25 14:11:27;;;;;;;3.42;3.13;;;13.80;99.90;;;;;;5077432;28;20169;-84
2021/10/25 14:14:08;;;;;;;4.10;3.05;;;13.90;99.90;;;;;;5078296;28;20172;-83
2021/10/25 14:16:35;;;;;;;5.82;2.95;;;14.00;99.90;;;;;;5074621;28;20149;-83
2021/10/25 14:19:07;;;;;;;2.97;2.78;;;13.90;99.90;;;;;;5074116;28;20277;-83
2021/10/25 14:21:36;;;;;;;6.35;2.95;;;14.00;99.90;;;;;;5074480;28;20197;-83
2021/10/25 14:24:04;;;;;;;3.08;2.60;;;13.90;99.90;;;;;;5074401;28;20159;-83
2021/10/25 14:26:31;;;;;;;2.83;2.65;;;13.90;99.90;;;;;;5074130;28;20177;-83
2021/10/25 14:28:56;;;;;;;3.20;3.00;;;13.80;99.90;;;;;;5074361;28;20618;-82
2021/10/25 14:31:22;;;;;;;5.90;3.40;;;13.70;99.90;;;;;;5074287;28;20176;-82
2021/10/25 14:33:50;;;;;;;2.90;2.72;;;13.70;99.90;;;;;;5076213;28;20242;-83
2021/10/25 14:36:18;;;;;;;3.60;3.30;;;13.60;99.90;;;;;;5079282;28;20652;-81
2021/10/25 14:43:54;;;;;;;5.65;3.03;;;13.50;99.90;;;;;;5075806;28;20149;-82
2021/10/25 14:46:38;;;;;;;2.97;2.75;;;13.40;99.90;;;;;;5074713;28;20152;-82
2021/10/25 14:53:21;;;;;;;5.68;2.95;;;13.40;99.90;;;;;;5074286;28;20598;-82
2021/10/25 14:57:25;;;;;;;3.30;2.95;;;13.40;99.90;;;;;;5075198;28;20190;-82
2021/10/25 15:03:13;;;;;;;4.45;3.17;;;13.40;99.90;;;;;;5078910;28;20215;-82
2021/10/25 15:05:40;;;;;;;4.43;2.80;;;13.70;99.90;;;;;;5078390;28;20176;-81
2021/10/25 15:08:06;;;;;;;3.00;2.80;;;13.70;99.90;;;;;;5078254;28;20172;-82
2021/10/25 15:10:32;;;;;;;2.83;2.63;;;13.70;99.90;;;;;;5077815;28;20603;-82
2021/10/25 15:12:58;;;;;;;3.45;3.10;;;13.70;99.90;;;;;;5075211;28;20177;-82
2021/10/25 15:15:23;;;;;;;4.93;2.47;;;13.60;99.90;;;;;;5073694;28;20207;-82
2021/10/25 15:17:50;;;;;;;3.88;3.58;;;13.60;99.90;;;;;;5074997;28;20228;-83
2021/10/25 15:20:16;;;;;;;5.38;2.85;;;13.40;99.90;;;;;;5074813;28;20239;-83
2021/10/25 15:22:42;;;;;;;3.00;2.80;;;13.30;99.90;;;;;;5074598;28;20211;-82
2021/10/25 15:25:10;;;;;;;3.20;2.78;;;13.10;99.90;;;;;;5075956;28;20161;-81
2021/10/25 15:27:40;;;;;;;3.75;2.92;;;13.00;99.90;;;;;;5076259;28;20168;-82
2021/10/25 15:30:10;;;;;;;3.65;3.08;;;12.90;99.90;;;;;;5075803;28;20164;-82
2021/10/25 15:32:37;;;;;;;7.53;2.88;;;12.80;99.90;;;;;;5076200;28;20625;-81
